»·PEaware :: N397JD KLAS-KLAX

N397JD :: KLAS-KLAX

FLIGHT INFORMATION

Flight Status: Arrived
Operator: Privately registered:
United States
More flights under this callsign
Pilot: Jd D. (31077)
Aircraft: CIRRUS VISIONJET
(SF50)
More flights by this aircraft type
Origin: KLAS McCarran Intl
United States
Destination: KLAX Los Angeles Intl
United States
More flights between these airports :: More routes between these airports
Route: RADYR1 BLAQQ SHTNR ANJLL4
File this flight plan on PilotEdge
Remarks:
Altitude:
(Current/Filed)
22,000ft
Speed:
(Current/Filed)
300kts
Departed: 20-Mar-21 01:06 PM
Arrived: 20-Mar-21 02:10 PM
Distance/Time
Traveled:
205nm/1:04
Distance/Time
To Go:
Arrived

Flight Plot

Page will automatically refresh every two minutes.

Flight plan parsing failed; only flown route is shown


Map Options




Map Legend


Flown Route
Filed Route
Departure Airport
Arrival Airport
Navaid (VOR, NDB)
Fix

Horizontal Profiles

Position Reports

Time Latitude Longitude Heading Altitude Ground
Speed
20-Mar-21 12:52 36.080454 -115.170833 125 2170ft 0kts
20-Mar-21 12:53 36.080454 -115.170833 125 2170ft 0kts
20-Mar-21 12:54 36.080454 -115.170833 125 2170ft 0kts
20-Mar-21 12:55 36.080454 -115.170833 126 2170ft 0kts
20-Mar-21 12:56 36.080425 -115.170784 125 2170ft 0kts
20-Mar-21 12:57 36.080406 -115.170751 126 2170ft 0kts
20-Mar-21 12:58 36.080406 -115.170751 126 2170ft 0kts
20-Mar-21 12:59 36.080406 -115.170751 126 2170ft 0kts
20-Mar-21 13:00 36.080406 -115.170751 126 2170ft 0kts
20-Mar-21 13:01 36.080406 -115.170751 126 2170ft 0kts
20-Mar-21 13:02 36.080406 -115.170751 126 2170ft 0kts
20-Mar-21 13:03 36.080309 -115.170453 95 2170ft 9kts
20-Mar-21 13:04 36.085084 -115.167151 26 2152ft 29kts
20-Mar-21 13:05 36.095187 -115.161352 24 2106ft 48kts
20-Mar-21 13:06 36.099145 -115.158059 127 2088ft 0kts
20-Mar-21 13:07 36.098469 -115.157132 200 2086ft 0kts
20-Mar-21 13:08 36.098469 -115.157132 200 2086ft 0kts
20-Mar-21 13:09 36.087433 -115.162818 202 2433ft 118kts
20-Mar-21 13:10 36.055926 -115.179878 208 5078ft 148kts
20-Mar-21 13:11 36.011353 -115.205041 208 6957ft 209kts
20-Mar-21 13:12 35.962149 -115.228070 207 10073ft 192kts
20-Mar-21 13:13 35.911076 -115.251283 208 12360ft 202kts
20-Mar-21 13:14 35.858110 -115.275299 209 14545ft 202kts
20-Mar-21 13:15 35.804162 -115.299741 209 16393ft 209kts
20-Mar-21 13:16 35.749419 -115.324501 209 18147ft 212kts
20-Mar-21 13:17 35.692509 -115.350221 209 19358ft 229kts
20-Mar-21 13:18 35.635935 -115.375672 211 21325ft 206kts
20-Mar-21 13:19 35.576079 -115.385271 189 22073ft 252kts
20-Mar-21 13:20 35.500950 -115.380050 187 22070ft 283kts
20-Mar-21 13:21 35.424082 -115.388736 211 22067ft 271kts
20-Mar-21 13:22 35.357543 -115.429466 215 22067ft 267kts
20-Mar-21 13:23 35.291166 -115.471811 215 22067ft 272kts
20-Mar-21 13:24 35.223838 -115.514722 215 22065ft 273kts
20-Mar-21 13:25 35.156545 -115.557530 215 22073ft 274kts
20-Mar-21 13:26 35.097868 -115.612459 230 22102ft 264kts
20-Mar-21 13:27 35.065054 -115.654118 230 22135ft 263kts
20-Mar-21 13:28 35.018597 -115.713419 230 22148ft 263kts
20-Mar-21 13:29 34.962810 -115.784541 230 22147ft 258kts
20-Mar-21 13:30 34.837618 -115.943616 231 22149ft 241kts
20-Mar-21 13:31 34.791853 -116.001581 231 22148ft 235kts
20-Mar-21 13:32 34.747305 -116.058226 231 22148ft 229kts
20-Mar-21 13:33 34.703790 -116.113652 231 22147ft 223kts
20-Mar-21 13:34 34.676129 -116.148840 231 22147ft 220kts
20-Mar-21 13:35 34.645679 -116.187545 231 22146ft 218kts
20-Mar-21 13:36 34.603816 -116.240674 231 22145ft 219kts
20-Mar-21 13:37 34.561315 -116.294536 231 22145ft 222kts
20-Mar-21 13:38 34.518305 -116.348946 231 22144ft 225kts
20-Mar-21 13:39 34.474743 -116.403968 231 22143ft 227kts
20-Mar-21 13:40 34.413964 -116.486064 243 22142ft 227kts
20-Mar-21 13:41 34.370888 -116.588642 245 22140ft 230kts
20-Mar-21 13:42 34.304140 -116.752365 245 22150ft 237kts
20-Mar-21 13:43 34.275071 -116.824551 245 22098ft 241kts
20-Mar-21 13:44 34.242753 -116.904625 245 20487ft 275kts
20-Mar-21 13:45 34.210482 -116.986928 250 19328ft 262kts
20-Mar-21 13:46 34.188134 -117.067958 252 18236ft 245kts
20-Mar-21 13:47 34.167120 -117.145461 252 17027ft 249kts
20-Mar-21 13:48 34.151147 -117.203693 252 16536ft 259kts
20-Mar-21 13:49 34.141035 -117.240456 252 15919ft 251kts
20-Mar-21 13:50 34.118804 -117.321127 252 15072ft 262kts
20-Mar-21 13:51 34.097973 -117.399413 254 14280ft 224kts
20-Mar-21 13:52 34.079940 -117.471330 254 12469ft 217kts
20-Mar-21 13:53 34.067515 -117.539366 260 11914ft 201kts
20-Mar-21 13:54 34.058771 -117.601002 260 11912ft 174kts
20-Mar-21 13:55 34.031282 -117.651581 236 11146ft 205kts
20-Mar-21 13:56 34.008821 -117.722520 261 9829ft 235kts
20-Mar-21 13:57 33.999170 -117.805057 264 8498ft 245kts
20-Mar-21 13:58 33.990534 -117.888090 264 7196ft 250kts
20-Mar-21 13:59 33.982146 -117.968353 264 6038ft 245kts
20-Mar-21 14:00 33.974370 -118.042635 265 5610ft 231kts
20-Mar-21 14:01 33.966449 -118.118164 264 3795ft 237kts
20-Mar-21 14:02 33.959486 -118.186741 265 3307ft 192kts
20-Mar-21 14:03 33.953127 -118.249410 264 2316ft 167kts
20-Mar-21 14:04 33.950260 -118.277758 264 1852ft 146kts
20-Mar-21 14:05 33.947998 -118.300036 265 1504ft 117kts
20-Mar-21 14:06 33.944524 -118.334219 265 932ft 96kts
20-Mar-21 14:07 33.941291 -118.365943 265 421ft 95kts
20-Mar-21 14:08 33.938515 -118.393574 268 103ft 54kts
20-Mar-21 14:09 33.936605 -118.403550 117 116ft 0kts
20-Mar-21 14:10 33.936254 -118.403388 159 116ft 11kts

Navigation Log

Ident Type
Flight plan parsing failed, navigation log unavailable